createdAt,value
2023-05-19T00:00:34.251Z,19.77
2023-05-19T00:01:37.438Z,19.76
2023-05-19T00:02:40.664Z,19.74
2023-05-19T00:03:51.337Z,19.79
2023-05-19T00:04:54.363Z,19.78
2023-05-19T00:05:57.846Z,19.81
2023-05-19T00:07:03.162Z,19.82
2023-05-19T00:08:06.947Z,19.78
2023-05-19T00:09:11.389Z,19.76
2023-05-19T00:10:14.853Z,19.77
2023-05-19T00:11:17.214Z,19.76
2023-05-19T00:12:19.691Z,19.71
2023-05-19T00:13:22.809Z,19.64
2023-05-19T00:14:25.891Z,19.62
2023-05-19T00:15:28.439Z,19.59
2023-05-19T00:16:31.277Z,19.70
2023-05-19T00:17:33.348Z,19.70
2023-05-19T00:18:36.321Z,19.69
2023-05-19T00:19:38.485Z,19.59
2023-05-19T00:20:40.472Z,19.59
2023-05-19T00:21:42.393Z,19.68
2023-05-19T00:22:44.417Z,19.67
2023-05-19T00:23:46.429Z,19.60
2023-05-19T00:24:48.937Z,19.62
2023-05-19T00:25:50.921Z,19.64
2023-05-19T00:26:52.935Z,19.59
2023-05-19T00:27:54.863Z,19.61
2023-05-19T00:28:56.949Z,19.57
2023-05-19T00:29:58.858Z,19.63
2023-05-19T00:31:01.539Z,19.60
2023-05-19T00:32:04.305Z,19.51
2023-05-19T00:33:06.338Z,19.58
2023-05-19T00:34:08.411Z,19.57
2023-05-19T00:35:10.984Z,19.41
2023-05-19T00:36:14.312Z,19.50
2023-05-19T00:37:16.344Z,19.55
2023-05-19T00:38:18.466Z,19.51
2023-05-19T00:39:20.523Z,19.55
2023-05-19T00:40:25.970Z,19.52
2023-05-19T00:41:28.787Z,19.56
2023-05-19T00:42:31.432Z,19.48
2023-05-19T00:43:33.558Z,19.55
2023-05-19T00:44:39.200Z,19.51
2023-05-19T00:45:41.297Z,19.53
2023-05-19T00:46:43.691Z,19.47
2023-05-19T00:47:46.521Z,19.52
2023-05-19T00:48:48.649Z,19.52
2023-05-19T00:49:50.667Z,19.52
2023-05-19T00:50:55.494Z,19.54
2023-05-19T00:51:58.869Z,19.54
2023-05-19T00:53:00.995Z,19.42
2023-05-19T00:54:03.658Z,19.42
2023-05-19T00:55:07.309Z,19.47
2023-05-19T00:56:10.046Z,19.44
2023-05-19T00:57:13.647Z,19.49
2023-05-19T00:58:16.498Z,19.42
2023-05-19T00:59:18.419Z,19.46
2023-05-19T01:00:20.619Z,19.40
2023-05-19T01:01:22.777Z,19.41
2023-05-19T01:02:26.930Z,19.41
2023-05-19T01:03:31.471Z,19.45
2023-05-19T01:04:36.957Z,19.38
2023-05-19T01:05:40.787Z,19.40
2023-05-19T01:06:43.205Z,19.31
2023-05-19T01:07:45.458Z,19.29
2023-05-19T01:08:47.347Z,19.35
2023-05-19T01:09:49.367Z,19.34
2023-05-19T01:10:51.335Z,19.24
2023-05-19T01:11:53.258Z,19.15
2023-05-19T01:12:55.149Z,19.21
2023-05-19T01:13:57.093Z,19.13
2023-05-19T01:15:00.051Z,19.17
2023-05-19T01:16:09.041Z,19.23
2023-05-19T01:17:26.804Z,19.26
2023-05-19T01:19:57.944Z,19.24
2023-05-19T01:21:20.593Z,19.20
2023-05-19T01:22:43.091Z,19.22
2023-05-19T01:23:48.902Z,19.22
2023-05-19T01:25:00.288Z,19.22
2023-05-19T01:26:41.478Z,19.22
2023-05-19T01:28:07.149Z,19.19
2023-05-19T01:29:35.463Z,19.10
2023-05-19T01:30:41.102Z,19.13
2023-05-19T01:31:44.655Z,19.08
2023-05-19T01:32:47.872Z,18.96
2023-05-19T01:33:52.771Z,19.04
2023-05-19T01:34:56.346Z,19.00
2023-05-19T01:35:59.697Z,19.03
2023-05-19T01:37:03.231Z,18.95
2023-05-19T01:38:08.227Z,18.69
2023-05-19T01:39:10.751Z,18.73
2023-05-19T01:40:13.945Z,18.84
2023-05-19T01:41:18.017Z,18.94
2023-05-19T01:42:20.646Z,18.87
2023-05-19T01:43:25.836Z,18.88
2023-05-19T01:44:28.811Z,18.88
2023-05-19T01:45:33.530Z,18.93
2023-05-19T01:46:37.493Z,18.95
2023-05-19T01:47:42.322Z,18.98
2023-05-19T01:48:45.075Z,18.97
2023-05-19T01:49:46.973Z,18.93
2023-05-19T01:50:49.156Z,18.90
2023-05-19T01:51:52.426Z,18.92
2023-05-19T01:52:54.998Z,18.90
2023-05-19T01:53:56.994Z,18.78
2023-05-19T01:54:59.180Z,18.76
2023-05-19T01:56:01.314Z,18.82
2023-05-19T01:57:30.815Z,18.86
2023-05-19T01:58:39.310Z,18.75
2023-05-19T01:59:53.661Z,18.71
2023-05-19T02:01:16.205Z,18.70
2023-05-19T02:02:22.076Z,18.71
2023-05-19T02:05:04.202Z,18.67
2023-05-19T02:06:16.840Z,18.70
2023-05-19T02:07:37.168Z,18.56
2023-05-19T02:08:59.803Z,18.62
2023-05-19T02:10:08.269Z,18.56
2023-05-19T02:11:19.956Z,18.63
2023-05-19T02:12:34.229Z,18.69
2023-05-19T02:13:39.607Z,18.66
2023-05-19T02:15:00.146Z,18.64
2023-05-19T02:16:06.964Z,18.68
2023-05-19T02:17:12.419Z,18.72
2023-05-19T02:18:15.231Z,18.67
2023-05-19T02:19:26.598Z,18.65
2023-05-19T02:20:28.868Z,18.61
2023-05-19T02:21:31.909Z,18.61
2023-05-19T02:22:34.192Z,18.57
2023-05-19T02:23:36.088Z,18.52
2023-05-19T02:24:38.055Z,18.59
2023-05-19T02:25:39.968Z,18.55
2023-05-19T02:26:42.169Z,18.45
2023-05-19T02:27:44.040Z,18.53
2023-05-19T02:28:45.952Z,18.52
2023-05-19T02:29:47.983Z,18.56
2023-05-19T02:30:50.214Z,18.51
2023-05-19T02:31:52.160Z,18.51
2023-05-19T02:32:54.219Z,18.44
2023-05-19T02:33:56.318Z,18.48
2023-05-19T02:34:58.277Z,18.48
2023-05-19T02:36:00.409Z,18.49
2023-05-19T02:37:02.326Z,18.53
2023-05-19T02:38:04.364Z,18.54
2023-05-19T02:39:06.669Z,18.51
2023-05-19T02:40:09.203Z,18.56
2023-05-19T02:41:11.114Z,18.53
2023-05-19T02:42:13.093Z,18.51
2023-05-19T02:43:14.993Z,18.52
2023-05-19T02:44:16.939Z,18.48
2023-05-19T02:45:18.877Z,18.50
2023-05-19T02:46:21.125Z,18.50
2023-05-19T02:47:23.109Z,18.48
2023-05-19T02:48:25.352Z,18.48
2023-05-19T02:49:27.355Z,18.52
2023-05-19T02:50:29.364Z,18.47
2023-05-19T02:51:31.345Z,18.52
2023-05-19T02:52:33.225Z,18.53
2023-05-19T02:53:36.420Z,18.51
2023-05-19T02:54:38.400Z,18.41
2023-05-19T02:55:40.274Z,18.47
2023-05-19T02:56:42.278Z,18.52
2023-05-19T02:57:44.156Z,18.50
2023-05-19T02:58:46.027Z,18.43
2023-05-19T02:59:48.437Z,18.50
2023-05-19T03:00:50.422Z,18.51
2023-05-19T03:01:54.961Z,18.44
2023-05-19T03:02:57.148Z,18.51
2023-05-19T03:03:59.250Z,18.41
2023-05-19T03:05:01.708Z,18.52
2023-05-19T03:06:04.200Z,18.51
2023-05-19T03:07:06.078Z,18.48
2023-05-19T03:08:08.072Z,18.55
2023-05-19T03:09:10.042Z,18.51
2023-05-19T03:10:12.215Z,18.50
2023-05-19T03:11:14.099Z,18.47
2023-05-19T03:12:15.987Z,18.55
2023-05-19T03:13:17.947Z,18.49
2023-05-19T03:14:19.971Z,18.52
2023-05-19T03:15:21.876Z,18.53
2023-05-19T03:16:24.331Z,18.53
2023-05-19T03:17:26.621Z,18.53
2023-05-19T03:18:29.481Z,18.50
2023-05-19T03:19:31.804Z,18.43
2023-05-19T03:20:34.183Z,18.50
2023-05-19T03:21:36.506Z,18.59
2023-05-19T03:22:38.414Z,18.62
2023-05-19T03:23:40.457Z,18.63
2023-05-19T03:24:42.468Z,18.65
2023-05-19T03:25:44.480Z,18.65
2023-05-19T03:26:46.570Z,18.67
2023-05-19T03:27:48.584Z,18.54
2023-05-19T03:28:50.596Z,18.54
2023-05-19T03:29:52.494Z,18.66
2023-05-19T03:30:54.556Z,18.68
2023-05-19T03:31:57.602Z,18.66
2023-05-19T03:32:59.616Z,18.71
2023-05-19T03:34:01.632Z,18.65
2023-05-19T03:35:05.052Z,18.66
2023-05-19T03:36:07.388Z,18.68
2023-05-19T03:37:09.296Z,18.65
2023-05-19T03:38:11.241Z,18.64
2023-05-19T03:39:13.226Z,18.60
2023-05-19T03:40:16.369Z,18.62
2023-05-19T03:41:18.275Z,18.58
2023-05-19T03:42:20.184Z,18.53
2023-05-19T03:43:22.209Z,18.55
2023-05-19T03:44:24.092Z,18.64
2023-05-19T03:45:26.094Z,18.60
2023-05-19T03:46:28.443Z,18.54
2023-05-19T03:47:30.607Z,18.56
2023-05-19T03:48:33.675Z,18.68
2023-05-19T03:49:35.574Z,18.63
2023-05-19T03:50:37.580Z,18.62
2023-05-19T03:51:39.505Z,18.64
2023-05-19T03:52:42.152Z,18.65
2023-05-19T03:53:44.230Z,18.63
2023-05-19T03:54:46.151Z,18.63
2023-05-19T03:55:48.418Z,18.66
2023-05-19T03:56:50.470Z,18.65
2023-05-19T03:57:52.386Z,18.63
2023-05-19T03:58:54.614Z,18.68
2023-05-19T03:59:56.600Z,18.67
2023-05-19T04:00:58.802Z,18.68
2023-05-19T04:02:03.735Z,18.66
2023-05-19T04:03:06.362Z,18.72
2023-05-19T04:04:08.457Z,18.77
2023-05-19T04:05:10.715Z,18.71
2023-05-19T04:06:13.262Z,18.71
2023-05-19T04:07:15.354Z,18.75
2023-05-19T04:08:17.799Z,18.80
2023-05-19T04:09:21.014Z,18.81
2023-05-19T04:10:23.037Z,18.75
2023-05-19T04:11:25.345Z,18.76
2023-05-19T04:12:27.271Z,18.73
2023-05-19T04:13:29.872Z,18.53
2023-05-19T04:14:31.791Z,18.67
2023-05-19T04:15:34.787Z,18.61
2023-05-19T04:16:37.693Z,18.67
2023-05-19T04:17:40.002Z,18.64
2023-05-19T04:18:42.068Z,18.72
2023-05-19T04:19:44.022Z,18.63
2023-05-19T04:20:46.046Z,18.69
2023-05-19T04:21:48.027Z,18.67
2023-05-19T04:22:49.948Z,18.76
2023-05-19T04:23:51.973Z,18.64
2023-05-19T04:24:54.058Z,18.72
2023-05-19T04:25:55.986Z,18.72
2023-05-19T04:26:58.044Z,18.73
2023-05-19T04:27:59.946Z,18.69
2023-05-19T04:29:01.907Z,18.70
2023-05-19T04:30:05.321Z,18.60
2023-05-19T04:31:07.871Z,18.69
2023-05-19T04:32:09.845Z,18.68
2023-05-19T04:33:12.195Z,18.72
2023-05-19T04:34:14.358Z,18.73
2023-05-19T04:35:16.409Z,18.75
2023-05-19T04:36:18.604Z,18.66
2023-05-19T04:37:20.594Z,18.73
2023-05-19T04:38:22.653Z,18.71
2023-05-19T04:39:24.699Z,18.75
2023-05-19T04:40:27.195Z,18.66
2023-05-19T04:41:29.303Z,18.66
2023-05-19T04:42:31.793Z,18.73
2023-05-19T04:43:33.680Z,18.46
2023-05-19T04:44:35.572Z,18.56
2023-05-19T04:45:37.437Z,18.56
2023-05-19T04:46:39.525Z,18.51
2023-05-19T04:47:41.481Z,18.56
2023-05-19T04:48:43.708Z,18.58
2023-05-19T04:49:45.589Z,18.39
2023-05-19T04:50:47.560Z,18.46
2023-05-19T04:51:49.573Z,18.49
2023-05-19T04:52:51.462Z,18.39
2023-05-19T04:53:57.676Z,18.29
2023-05-19T04:54:59.727Z,18.52
2023-05-19T04:56:01.842Z,18.56
2023-05-19T04:57:05.022Z,18.36
2023-05-19T04:58:06.954Z,18.49
2023-05-19T04:59:09.530Z,18.55
2023-05-19T05:00:13.178Z,18.62
2023-05-19T05:01:15.613Z,18.70
2023-05-19T05:02:17.934Z,18.63
2023-05-19T05:03:20.131Z,18.68
2023-05-19T05:04:23.257Z,18.66
2023-05-19T05:05:25.290Z,18.67
2023-05-19T05:06:27.599Z,18.72
2023-05-19T05:07:31.646Z,18.74
2023-05-19T05:08:33.536Z,18.78
2023-05-19T05:09:35.826Z,18.59
2023-05-19T05:10:38.027Z,18.62
2023-05-19T05:11:40.813Z,18.64
2023-05-19T05:12:43.350Z,18.75
2023-05-19T05:13:46.213Z,18.82
2023-05-19T05:14:48.965Z,18.81
2023-05-19T05:15:51.578Z,18.81
2023-05-19T05:16:54.477Z,18.87
2023-05-19T05:17:58.078Z,18.88
2023-05-19T05:19:01.438Z,18.90
2023-05-19T05:20:04.835Z,18.78
2023-05-19T05:21:07.894Z,18.87
2023-05-19T05:22:10.682Z,18.84
2023-05-19T05:23:13.407Z,18.84
2023-05-19T05:24:16.397Z,18.84
2023-05-19T05:25:19.624Z,18.90
2023-05-19T05:26:22.568Z,18.96
2023-05-19T05:27:24.465Z,19.02
2023-05-19T05:28:26.384Z,18.99
2023-05-19T05:29:28.387Z,18.99
2023-05-19T05:30:30.850Z,19.05
2023-05-19T05:31:32.787Z,19.07
2023-05-19T05:32:34.991Z,19.04
2023-05-19T05:33:38.305Z,19.08
2023-05-19T05:34:40.612Z,19.10
2023-05-19T05:35:42.513Z,19.11
2023-05-19T05:36:44.613Z,19.11
2023-05-19T05:37:46.533Z,19.16
2023-05-19T05:38:48.994Z,19.12
2023-05-19T05:39:51.065Z,19.19
2023-05-19T05:40:53.254Z,19.17
2023-05-19T05:41:55.301Z,19.20
2023-05-19T05:42:58.331Z,19.23
2023-05-19T05:44:04.088Z,19.26
2023-05-19T05:45:07.178Z,19.15
2023-05-19T05:46:11.231Z,19.23
2023-05-19T05:47:14.680Z,19.25
2023-05-19T05:48:17.483Z,19.12
2023-05-19T05:49:20.169Z,19.27
2023-05-19T05:50:22.888Z,19.30
2023-05-19T05:51:25.477Z,19.22
2023-05-19T05:52:30.292Z,19.16
2023-05-19T05:53:36.204Z,19.22
2023-05-19T05:54:38.877Z,19.25
2023-05-19T05:55:41.728Z,19.24
2023-05-19T05:56:45.565Z,19.22
2023-05-19T05:57:48.496Z,19.32
2023-05-19T05:58:50.487Z,19.32
2023-05-19T05:59:52.919Z,19.32
2023-05-19T06:00:55.162Z,19.30
2023-05-19T06:01:57.245Z,19.36
2023-05-19T06:02:59.539Z,19.41
2023-05-19T06:04:01.626Z,19.16
2023-05-19T06:05:04.260Z,19.30
2023-05-19T06:06:09.602Z,19.31
2023-05-19T06:07:11.670Z,19.26
2023-05-19T06:08:13.553Z,19.35
2023-05-19T06:09:15.696Z,19.37
2023-05-19T06:10:17.817Z,19.39
2023-05-19T06:11:19.816Z,19.45
2023-05-19T06:12:21.836Z,19.39
2023-05-19T06:13:24.277Z,19.39
2023-05-19T06:14:27.116Z,19.42
2023-05-19T06:15:29.059Z,19.40
2023-05-19T06:16:31.195Z,19.46
2023-05-19T06:17:35.037Z,19.52
2023-05-19T06:18:37.185Z,19.56
2023-05-19T06:19:39.224Z,19.55
2023-05-19T06:20:41.280Z,19.28
2023-05-19T06:21:43.335Z,19.22
2023-05-19T06:22:45.654Z,19.23
2023-05-19T06:23:47.566Z,19.42
2023-05-19T06:24:49.573Z,19.53
2023-05-19T06:25:51.635Z,19.56
2023-05-19T06:26:55.424Z,19.51
2023-05-19T06:27:57.490Z,19.50
2023-05-19T06:28:59.483Z,19.69
2023-05-19T06:30:01.783Z,19.77
2023-05-19T06:31:03.864Z,19.85
2023-05-19T06:32:06.025Z,19.89
2023-05-19T06:33:07.982Z,19.77
2023-05-19T06:34:10.121Z,19.92
2023-05-19T06:35:12.100Z,19.97
2023-05-19T06:36:14.413Z,20.05
2023-05-19T06:37:16.465Z,20.08
2023-05-19T06:38:18.515Z,20.21
2023-05-19T06:39:21.642Z,20.06
2023-05-19T06:40:23.877Z,20.12
2023-05-19T06:41:25.745Z,20.22
2023-05-19T06:42:28.094Z,20.16
2023-05-19T06:43:30.207Z,19.90
2023-05-19T06:44:33.438Z,19.85
2023-05-19T06:45:35.444Z,20.16
2023-05-19T06:46:37.461Z,19.87
2023-05-19T06:47:39.556Z,19.92
2023-05-19T06:48:41.568Z,20.23
2023-05-19T06:50:55.901Z,20.56
2023-05-19T06:51:57.780Z,20.59
2023-05-19T06:53:01.252Z,20.70
2023-05-19T06:54:03.257Z,20.81
2023-05-19T06:55:06.560Z,20.82
2023-05-19T06:56:08.859Z,20.92
2023-05-19T06:57:10.734Z,20.97
2023-05-19T06:58:12.646Z,21.00
2023-05-19T06:59:14.511Z,21.05
2023-05-19T07:00:32.171Z,21.01
2023-05-19T07:01:21.351Z,20.81
2023-05-19T07:02:23.297Z,20.84
2023-05-19T07:03:25.271Z,20.99
2023-05-19T07:04:27.310Z,20.86
2023-05-19T07:05:29.285Z,20.86
2023-05-19T07:06:35.202Z,21.06
2023-05-19T07:07:37.883Z,20.86
2023-05-19T07:08:39.820Z,20.99
2023-05-19T07:09:42.249Z,21.13
2023-05-19T07:10:45.000Z,21.21
2023-05-19T07:11:46.986Z,21.22
2023-05-19T07:12:49.111Z,21.25
2023-05-19T07:13:51.112Z,21.34
2023-05-19T07:14:53.012Z,20.97
2023-05-19T07:15:54.933Z,21.31
2023-05-19T07:16:56.988Z,21.49
2023-05-19T07:17:58.877Z,21.14
2023-05-19T07:19:00.894Z,21.14
2023-05-19T07:20:03.623Z,21.32
2023-05-19T07:21:05.514Z,21.59
2023-05-19T07:22:07.390Z,21.66
2023-05-19T07:23:09.281Z,21.72
2023-05-19T07:24:11.281Z,21.51
2023-05-19T07:25:13.279Z,21.57
2023-05-19T07:26:15.363Z,21.72
2023-05-19T07:27:18.070Z,21.79
2023-05-19T07:28:19.962Z,21.99
2023-05-19T07:29:21.966Z,22.14
2023-05-19T07:30:25.891Z,21.68
2023-05-19T07:31:28.122Z,21.91
2023-05-19T07:32:30.126Z,21.61
2023-05-19T07:33:32.241Z,21.72
2023-05-19T07:34:34.346Z,21.97
2023-05-19T07:35:36.922Z,22.20
2023-05-19T07:36:39.117Z,22.27
2023-05-19T07:37:41.144Z,22.18
2023-05-19T07:38:43.042Z,22.34
2023-05-19T07:39:45.150Z,22.40
2023-05-19T07:40:47.356Z,22.30
2023-05-19T07:41:49.325Z,22.04
2023-05-19T07:42:51.236Z,22.05
2023-05-19T07:43:53.154Z,21.66
2023-05-19T07:44:55.108Z,21.97
2023-05-19T07:45:57.119Z,21.58
2023-05-19T07:46:59.659Z,21.80
2023-05-19T07:48:01.736Z,21.78
2023-05-19T07:49:05.975Z,21.77
2023-05-19T07:50:08.915Z,22.02
2023-05-19T07:51:11.847Z,22.11
2023-05-19T07:52:13.854Z,22.12
2023-05-19T07:53:15.733Z,22.16
2023-05-19T07:54:17.811Z,22.26
2023-05-19T07:55:19.704Z,22.38
2023-05-19T07:56:21.804Z,22.40
2023-05-19T07:57:23.796Z,22.18
2023-05-19T07:58:26.011Z,22.18
2023-05-19T07:59:28.061Z,22.21
2023-05-19T08:00:30.312Z,22.07
2023-05-19T08:01:32.216Z,22.27
2023-05-19T08:02:34.320Z,22.34
2023-05-19T08:03:36.390Z,22.34
2023-05-19T08:04:38.463Z,22.34
2023-05-19T08:05:40.582Z,22.31
2023-05-19T08:06:43.721Z,22.48
2023-05-19T08:07:46.016Z,22.59
2023-05-19T08:08:47.950Z,22.58
2023-05-19T08:09:50.553Z,22.30
2023-05-19T08:10:52.576Z,22.71
2023-05-19T08:11:54.648Z,23.16
2023-05-19T08:12:56.664Z,22.92
2023-05-19T08:13:58.572Z,22.62
2023-05-19T08:15:01.623Z,22.66
2023-05-19T08:16:04.495Z,22.91
2023-05-19T08:17:07.446Z,23.08
2023-05-19T08:18:09.822Z,23.22
2023-05-19T08:19:12.631Z,23.14
2023-05-19T08:20:15.133Z,23.40
2023-05-19T08:21:17.139Z,23.20
2023-05-19T08:22:19.151Z,23.32
2023-05-19T08:23:21.165Z,23.30
2023-05-19T08:24:23.225Z,23.27
2023-05-19T08:25:25.374Z,23.36
2023-05-19T08:26:28.250Z,23.08
2023-05-19T08:27:31.565Z,23.45
2023-05-19T08:28:33.480Z,23.45
2023-05-19T08:29:35.444Z,23.66
2023-05-19T08:30:37.460Z,24.15
2023-05-19T08:31:39.816Z,24.18
2023-05-19T08:32:41.918Z,23.35
2023-05-19T08:33:44.246Z,23.52
2023-05-19T08:34:46.294Z,24.16
2023-05-19T08:35:48.735Z,24.18
2023-05-19T08:36:50.861Z,24.13
2023-05-19T08:38:54.820Z,23.56
2023-05-19T08:39:57.931Z,23.45
2023-05-19T08:41:00.186Z,23.23
2023-05-19T08:42:02.104Z,23.60
2023-05-19T08:43:04.128Z,23.45
2023-05-19T08:44:06.282Z,23.15
2023-05-19T08:45:09.374Z,23.10
2023-05-19T08:46:13.527Z,23.27
2023-05-19T08:47:17.078Z,23.39
2023-05-19T08:48:19.742Z,22.95
2023-05-19T08:49:25.808Z,23.41
2023-05-19T08:50:31.147Z,23.66
2023-05-19T08:51:37.041Z,23.46
2023-05-19T08:52:51.845Z,23.25
2023-05-19T08:53:57.059Z,23.33
2023-05-19T08:55:05.718Z,23.37
2023-05-19T08:56:11.366Z,23.64
2023-05-19T08:57:13.935Z,23.39
2023-05-19T08:58:17.848Z,23.14
2023-05-19T08:59:22.256Z,23.18
2023-05-19T09:00:26.176Z,23.07
2023-05-19T09:01:28.628Z,23.02
2023-05-19T09:02:31.243Z,23.25
2023-05-19T09:03:34.844Z,23.27
2023-05-19T09:04:39.223Z,23.11
2023-05-19T09:05:41.280Z,23.15
2023-05-19T09:06:43.562Z,23.38
2023-05-19T09:07:45.976Z,23.12
2023-05-19T09:08:48.014Z,23.46
2023-05-19T09:09:49.952Z,23.62
2023-05-19T09:10:51.990Z,23.61
2023-05-19T09:11:53.999Z,23.66
2023-05-19T09:12:55.880Z,23.76
2023-05-19T09:13:57.796Z,23.79
2023-05-19T09:15:00.249Z,23.81
2023-05-19T09:16:03.145Z,23.71
2023-05-19T09:17:06.007Z,23.58
2023-05-19T09:18:10.553Z,23.35
2023-05-19T09:19:13.484Z,23.52
2023-05-19T09:20:16.780Z,23.71
2023-05-19T09:21:18.895Z,23.43
2023-05-19T09:22:20.842Z,23.36
2023-05-19T09:23:23.151Z,23.93
2023-05-19T09:24:25.257Z,24.09
2023-05-19T09:25:27.144Z,24.29
2023-05-19T09:26:37.734Z,24.35
2023-05-19T09:27:39.665Z,24.20
2023-05-19T09:28:41.550Z,24.44
2023-05-19T09:29:46.236Z,24.26
2023-05-19T09:30:48.291Z,23.63
2023-05-19T09:33:02.408Z,23.68
2023-05-19T09:34:08.677Z,23.68
2023-05-19T09:35:12.119Z,23.68
2023-05-19T09:36:14.785Z,23.55
2023-05-19T09:37:16.819Z,23.42
2023-05-19T09:38:19.109Z,23.59
2023-05-19T09:39:23.344Z,23.45
2023-05-19T09:40:28.234Z,23.41
2023-05-19T09:41:30.416Z,23.28
2023-05-19T09:42:36.075Z,23.21
2023-05-19T09:43:37.987Z,23.34
2023-05-19T09:44:41.580Z,23.32
2023-05-19T09:45:43.719Z,23.28
2023-05-19T09:46:53.003Z,23.42
2023-05-19T09:47:55.246Z,23.50
2023-05-19T09:48:57.593Z,23.54
2023-05-19T09:49:59.593Z,23.42
2023-05-19T09:51:04.271Z,23.21
2023-05-19T09:52:08.314Z,23.15
2023-05-19T09:54:25.712Z,23.74
2023-05-19T09:55:28.547Z,23.59
2023-05-19T09:56:34.616Z,24.08
2023-05-19T09:57:38.174Z,24.32
2023-05-19T09:58:41.838Z,24.38
2023-05-19T09:59:45.933Z,24.71
2023-05-19T10:00:49.902Z,24.42
2023-05-19T10:01:54.408Z,24.58
2023-05-19T10:02:57.853Z,24.64
2023-05-19T10:04:00.272Z,24.06
2023-05-19T10:05:03.140Z,23.91
2023-05-19T10:06:05.989Z,23.64
2023-05-19T10:07:10.870Z,23.52
2023-05-19T10:08:13.829Z,23.54
2023-05-19T10:09:17.084Z,23.66
2023-05-19T10:10:20.839Z,23.66
2023-05-19T10:11:24.919Z,23.80
2023-05-19T10:12:27.415Z,23.68
2023-05-19T10:13:31.310Z,23.65
2023-05-19T10:14:33.741Z,23.61
2023-05-19T10:15:46.698Z,23.89
2023-05-19T10:16:41.126Z,23.68
2023-05-19T10:17:44.232Z,23.82
2023-05-19T10:18:49.190Z,23.78
2023-05-19T10:19:52.051Z,24.22
2023-05-19T10:20:55.254Z,24.23
2023-05-19T10:21:57.149Z,24.17
2023-05-19T10:22:59.237Z,23.81
2023-05-19T10:24:01.126Z,23.62
2023-05-19T10:25:05.557Z,23.47
2023-05-19T10:26:09.252Z,23.35
2023-05-19T10:27:14.253Z,23.37
2023-05-19T10:28:18.812Z,23.39
2023-05-19T10:29:24.623Z,23.63
2023-05-19T10:31:52.237Z,24.29
2023-05-19T10:32:55.260Z,24.19
2023-05-19T10:34:25.310Z,24.37
2023-05-19T10:35:45.206Z,24.31
2023-05-19T10:36:51.024Z,24.02
2023-05-19T10:38:05.642Z,24.29
2023-05-19T10:39:11.505Z,24.42
2023-05-19T10:40:29.471Z,24.17
2023-05-19T10:41:45.072Z,24.65
2023-05-19T10:42:54.313Z,24.54
2023-05-19T10:44:12.045Z,23.70
2023-05-19T10:45:23.582Z,23.46
2023-05-19T10:46:27.367Z,23.54
2023-05-19T10:47:29.460Z,23.69
2023-05-19T10:48:35.206Z,23.91
2023-05-19T10:49:38.943Z,23.99
2023-05-19T10:50:43.743Z,24.00
2023-05-19T10:51:46.197Z,23.91
2023-05-19T10:52:55.706Z,23.80
2023-05-19T10:53:57.719Z,23.83
2023-05-19T10:55:00.501Z,23.80
2023-05-19T10:56:03.991Z,23.65
2023-05-19T10:57:07.460Z,23.48
2023-05-19T10:58:10.890Z,23.42
2023-05-19T10:59:30.071Z,23.39
2023-05-19T11:00:32.818Z,23.43
2023-05-19T11:01:35.475Z,23.21
2023-05-19T11:02:39.942Z,23.26
2023-05-19T11:03:53.859Z,23.05
2023-05-19T11:04:59.704Z,23.10
2023-05-19T11:06:28.691Z,22.94
2023-05-19T11:07:30.743Z,22.97
2023-05-19T11:08:33.898Z,23.19
2023-05-19T11:10:51.316Z,22.71
2023-05-19T11:11:53.824Z,22.90
2023-05-19T11:12:58.293Z,22.70
2023-05-19T11:14:00.605Z,22.71
2023-05-19T11:15:02.723Z,22.64
2023-05-19T11:16:08.943Z,22.52
2023-05-19T11:17:15.477Z,22.39
2023-05-19T11:18:18.903Z,22.50
2023-05-19T11:19:28.810Z,22.52
2023-05-19T11:20:31.148Z,22.42
2023-05-19T11:21:50.743Z,22.40
2023-05-19T11:23:08.470Z,22.12
2023-05-19T11:24:31.344Z,22.25
2023-05-19T11:25:46.166Z,22.30
2023-05-19T11:26:48.342Z,22.14
2023-05-19T11:27:52.019Z,22.17
2023-05-19T11:28:54.030Z,22.19
2023-05-19T11:29:59.338Z,22.02
2023-05-19T11:31:01.895Z,22.28
2023-05-19T11:32:04.780Z,22.26
2023-05-19T11:33:08.078Z,22.32
2023-05-19T11:34:10.618Z,22.24
2023-05-19T11:35:13.369Z,22.28
2023-05-19T11:36:15.570Z,22.10
2023-05-19T11:37:17.490Z,22.27
2023-05-19T11:38:20.586Z,22.13
2023-05-19T11:39:23.717Z,22.40
2023-05-19T11:40:26.089Z,22.20
2023-05-19T11:41:28.012Z,22.11
2023-05-19T11:42:31.319Z,22.14
2023-05-19T11:43:33.355Z,22.19
2023-05-19T11:44:35.346Z,22.35
2023-05-19T11:45:37.744Z,22.17
2023-05-19T11:46:40.272Z,22.19
2023-05-19T11:48:00.140Z,22.24
2023-05-19T11:48:49.244Z,22.17
2023-05-19T11:49:51.538Z,22.07
2023-05-19T11:50:54.117Z,22.08
2023-05-19T11:51:58.882Z,22.23
2023-05-19T11:53:00.818Z,22.33
2023-05-19T11:54:03.459Z,22.50
2023-05-19T11:55:06.583Z,22.47
2023-05-19T11:56:08.803Z,22.46
2023-05-19T11:57:10.743Z,22.41
2023-05-19T11:58:12.940Z,22.57
2023-05-19T11:59:14.818Z,22.55
2023-05-19T12:00:17.997Z,22.47
2023-05-19T12:01:23.175Z,22.63
2023-05-19T12:02:25.466Z,22.63
2023-05-19T12:03:27.632Z,22.53
2023-05-19T12:04:30.498Z,22.56
2023-05-19T12:05:37.959Z,22.56
2023-05-19T12:06:39.293Z,22.34
2023-05-19T12:07:41.414Z,22.43
2023-05-19T12:08:44.670Z,22.19
2023-05-19T12:09:47.106Z,22.15
2023-05-19T12:10:51.526Z,22.07
2023-05-19T12:11:54.707Z,22.10
2023-05-19T12:12:57.485Z,21.93
2023-05-19T12:14:00.653Z,22.07
2023-05-19T12:15:03.762Z,22.35
2023-05-19T12:16:07.799Z,22.45
2023-05-19T12:17:15.035Z,22.37
2023-05-19T12:18:16.982Z,22.39
2023-05-19T12:19:24.229Z,22.39
2023-05-19T12:20:28.393Z,22.28
2023-05-19T12:21:34.183Z,22.49
2023-05-19T12:22:35.390Z,22.44
2023-05-19T12:23:38.128Z,22.43
2023-05-19T12:24:41.862Z,22.32
2023-05-19T12:25:44.808Z,22.36
2023-05-19T12:26:47.132Z,22.40
2023-05-19T12:27:49.451Z,22.35
2023-05-19T12:28:51.489Z,22.64
2023-05-19T12:29:55.525Z,22.57
2023-05-19T12:30:57.766Z,22.69
2023-05-19T12:32:02.001Z,22.65
2023-05-19T12:33:04.320Z,22.59
2023-05-19T12:34:06.558Z,22.62
2023-05-19T12:35:10.026Z,22.46
2023-05-19T12:36:15.194Z,22.47
2023-05-19T12:37:17.119Z,22.41
2023-05-19T12:38:19.441Z,22.61
2023-05-19T12:39:21.566Z,22.59
2023-05-19T12:40:24.042Z,22.44
2023-05-19T12:41:26.325Z,22.44
2023-05-19T12:42:30.172Z,22.40
2023-05-19T12:43:32.124Z,22.43
2023-05-19T12:44:44.183Z,22.36
2023-05-19T12:45:46.406Z,22.29
2023-05-19T12:46:51.557Z,22.09
2023-05-19T12:47:53.972Z,22.09
2023-05-19T12:48:58.708Z,22.05
2023-05-19T12:50:09.080Z,22.22
2023-05-19T12:51:20.480Z,21.97
2023-05-19T12:52:23.128Z,22.34
2023-05-19T12:53:26.323Z,22.50
2023-05-19T12:54:33.180Z,22.36
2023-05-19T12:55:40.803Z,22.38
2023-05-19T12:56:51.371Z,22.33
2023-05-19T12:57:53.694Z,22.13
2023-05-19T12:58:55.761Z,22.09
2023-05-19T13:01:22.813Z,22.36
2023-05-19T13:02:24.863Z,22.17
2023-05-19T13:03:27.017Z,22.39
2023-05-19T13:04:29.241Z,22.26
2023-05-19T13:05:34.378Z,22.32
2023-05-19T13:06:36.500Z,22.38
2023-05-19T13:07:38.551Z,22.33
2023-05-19T13:08:40.870Z,22.16
2023-05-19T13:09:42.885Z,22.26
2023-05-19T13:10:47.154Z,22.09
2023-05-19T13:11:49.201Z,22.11
2023-05-19T13:12:51.675Z,22.07
2023-05-19T13:13:55.366Z,22.05
2023-05-19T13:14:57.292Z,22.22
2023-05-19T13:15:59.585Z,22.23
2023-05-19T13:17:01.665Z,22.24
2023-05-19T13:18:08.106Z,22.04
2023-05-19T13:19:23.785Z,22.10
2023-05-19T13:20:14.592Z,21.97
2023-05-19T13:21:16.915Z,21.98
2023-05-19T13:22:18.895Z,22.03
2023-05-19T13:23:21.090Z,22.02
2023-05-19T13:24:22.974Z,22.30
2023-05-19T13:25:26.562Z,22.41
2023-05-19T13:26:28.892Z,22.42
2023-05-19T13:27:30.769Z,22.35
2023-05-19T13:28:32.709Z,22.41
2023-05-19T13:29:35.766Z,22.32
2023-05-19T13:30:40.510Z,22.39
2023-05-19T13:31:42.484Z,22.60
2023-05-19T13:32:45.281Z,22.13
2023-05-19T13:33:47.264Z,22.09
2023-05-19T13:34:49.256Z,22.04
2023-05-19T13:35:51.144Z,22.10
2023-05-19T13:36:53.262Z,21.80
2023-05-19T13:37:55.545Z,21.91
2023-05-19T13:38:57.539Z,21.75
2023-05-19T13:39:59.695Z,21.88
2023-05-19T13:41:01.826Z,21.99
2023-05-19T13:42:04.349Z,22.08
2023-05-19T13:43:06.542Z,22.12
2023-05-19T13:44:08.516Z,22.05
2023-05-19T13:45:10.578Z,22.01
2023-05-19T13:46:13.290Z,22.09
2023-05-19T13:47:15.408Z,22.05
2023-05-19T13:48:17.412Z,22.00
2023-05-19T13:49:19.377Z,21.61
2023-05-19T13:50:21.473Z,21.78